Time;durP1;ratioP1;P1;durP2;ratioP2;P2;SDS_P1;SDS_P2;PMS_P1;PMS_P2;Temp;Humidity;BMP_temperature;BMP_pressure;BME280_temperature;BME280_humidity;BME280_pressure;Samples;Min_cycle;Max_cycle;Signal;HPM_P1;HPM_P2
2021/05/20 00:02:56;;;;;;;2.93;1.33;;;;;;;;;;4954591;29;20218;-72
2021/05/20 00:06:00;;;;;;;1.73;1.40;;;;;;;;;;4954674;29;20199;-73
2021/05/20 00:09:05;;;;;;;2.37;1.60;;;;;;;;;;4954945;29;20196;-72
2021/05/20 00:12:10;;;;;;;1.43;1.33;;;;;;;;;;4944170;29;20576;-72
2021/05/20 00:15:15;;;;;;;5.53;1.50;;;;;;;;;;4946421;29;20564;-72
2021/05/20 00:18:19;;;;;;;2.10;1.60;;;;;;;;;;4943538;29;20215;-72
2021/05/20 00:21:24;;;;;;;2.50;1.57;;;;;;;;;;4955426;29;20172;-73
2021/05/20 00:24:27;;;;;;;1.90;1.53;;;;;;;;;;4943537;29;20184;-72
2021/05/20 00:27:36;;;;;;;2.43;1.60;;;;;;;;;;4954203;29;20199;-72
2021/05/20 00:30:42;;;;;;;2.77;1.60;;;;;;;;;;4954387;29;20651;-73
2021/05/20 00:33:47;;;;;;;2.57;1.80;;;;;;;;;;4954792;29;20203;-72
2021/05/20 00:36:51;;;;;;;2.23;1.60;;;;;;;;;;4943672;29;20636;-72
2021/05/20 00:39:55;;;;;;;5.10;1.67;;;;;;;;;;4949101;29;20207;-72
2021/05/20 00:42:59;;;;;;;8.60;2.10;;;;;;;;;;4953106;29;20641;-72
2021/05/20 00:46:03;;;;;;;7.30;1.80;;;;;;;;;;4951679;29;20191;-72
2021/05/20 00:49:11;;;;;;;2.43;1.73;;;;;;;;;;4954367;29;20199;-72
2021/05/20 00:52:15;;;;;;;4.63;1.90;;;;;;;;;;4927603;29;20232;-72
2021/05/20 00:55:21;;;;;;;2.33;1.80;;;;;;;;;;4939415;29;20215;-72
2021/05/20 00:58:26;;;;;;;2.10;1.83;;;;;;;;;;4938531;29;20199;-72
2021/05/20 01:01:31;;;;;;;1.60;1.50;;;;;;;;;;4950930;28;20188;-72
2021/05/20 01:04:34;;;;;;;2.53;1.93;;;;;;;;;;4937690;29;20199;-72
2021/05/20 01:07:39;;;;;;;4.80;1.93;;;;;;;;;;4941563;29;20366;-71
2021/05/20 01:11:30;;;;;;;2.87;1.90;;;;;;;;;;4949516;29;20192;-73
2021/05/20 01:14:39;;;;;;;3.47;1.67;;;;;;;;;;4939450;29;20180;-71
2021/05/20 01:17:48;;;;;;;4.70;1.70;;;;;;;;;;4957824;29;20188;-72
2021/05/20 01:20:53;;;;;;;3.47;1.97;;;;;;;;;;4957935;29;20219;-72
2021/05/20 01:23:57;;;;;;;3.00;2.00;;;;;;;;;;4939404;29;20180;-72
2021/05/20 01:27:03;;;;;;;3.67;2.10;;;;;;;;;;4952178;29;20187;-72
2021/05/20 01:30:08;;;;;;;2.50;1.80;;;;;;;;;;4946371;29;20176;-72
2021/05/20 01:33:13;;;;;;;2.73;1.90;;;;;;;;;;4957755;29;20215;-72
2021/05/20 01:36:26;;;;;;;2.93;1.90;;;;;;;;;;4948706;29;20207;-71
2021/05/20 01:39:32;;;;;;;2.37;1.70;;;;;;;;;;4940196;29;20208;-71
2021/05/20 01:42:37;;;;;;;2.77;1.97;;;;;;;;;;4956373;29;20227;-71
2021/05/20 01:45:42;;;;;;;2.57;1.90;;;;;;;;;;4948683;29;20200;-71
2021/05/20 01:48:48;;;;;;;3.23;1.90;;;;;;;;;;4938229;29;20651;-72
2021/05/20 01:51:52;;;;;;;3.30;1.80;;;;;;;;;;4948289;29;20564;-71
2021/05/20 01:54:57;;;;;;;3.17;1.83;;;;;;;;;;4957408;29;20215;-72
2021/05/20 01:58:01;;;;;;;2.50;1.73;;;;;;;;;;4933545;29;20196;-72
2021/05/20 02:01:05;;;;;;;2.50;1.70;;;;;;;;;;4938744;29;20540;-72
2021/05/20 02:04:10;;;;;;;2.00;1.60;;;;;;;;;;4937943;29;20362;-72
2021/05/20 02:07:14;;;;;;;3.27;1.80;;;;;;;;;;4950506;29;20207;-72
2021/05/20 02:10:18;;;;;;;4.53;1.90;;;;;;;;;;4941950;29;20188;-72
2021/05/20 02:13:23;;;;;;;3.30;2.07;;;;;;;;;;4939707;29;20220;-72
2021/05/20 02:16:27;;;;;;;2.10;1.90;;;;;;;;;;4947486;29;20659;-72
2021/05/20 02:19:31;;;;;;;3.80;1.80;;;;;;;;;;4946849;29;20227;-72
2021/05/20 02:22:36;;;;;;;2.03;1.60;;;;;;;;;;4956830;29;20226;-72
2021/05/20 02:25:40;;;;;;;2.00;1.80;;;;;;;;;;4946161;29;20212;-72
2021/05/20 02:28:44;;;;;;;1.70;1.60;;;;;;;;;;4940088;29;20192;-72
2021/05/20 02:31:48;;;;;;;2.40;1.60;;;;;;;;;;4944156;29;20216;-72
2021/05/20 02:34:53;;;;;;;2.30;1.70;;;;;;;;;;4938010;29;20624;-72
2021/05/20 02:37:57;;;;;;;3.33;1.77;;;;;;;;;;4937689;29;20188;-72
2021/05/20 02:41:02;;;;;;;3.23;1.77;;;;;;;;;;4937526;29;20212;-72
2021/05/20 02:44:06;;;;;;;1.53;1.33;;;;;;;;;;4956287;29;20207;-72
2021/05/20 02:47:10;;;;;;;3.57;1.83;;;;;;;;;;4937233;29;20192;-72
2021/05/20 02:50:16;;;;;;;2.33;1.73;;;;;;;;;;4951330;29;20195;-72
2021/05/20 02:53:20;;;;;;;2.97;1.87;;;;;;;;;;4956551;29;20231;-72
2021/05/20 02:56:24;;;;;;;3.23;1.90;;;;;;;;;;4986338;23;20221;-72
2021/05/20 02:59:29;;;;;;;4.80;1.90;;;;;;;;;;5013966;28;20189;-72
2021/05/20 03:02:33;;;;;;;2.23;1.60;;;;;;;;;;5014074;28;20573;-72
2021/05/20 03:05:38;;;;;;;3.27;2.20;;;;;;;;;;4999348;28;20652;-72
2021/05/20 03:08:42;;;;;;;3.43;2.00;;;;;;;;;;4995835;28;20194;-73
2021/05/20 03:11:46;;;;;;;3.73;1.97;;;;;;;;;;5002125;28;20209;-72
2021/05/20 03:14:50;;;;;;;2.90;2.00;;;;;;;;;;5009835;28;20544;-73
2021/05/20 03:17:54;;;;;;;2.50;2.17;;;;;;;;;;4994220;28;20183;-72
2021/05/20 03:21:00;;;;;;;6.00;2.30;;;;;;;;;;4975265;28;20657;-72
2021/05/20 03:24:04;;;;;;;2.60;2.23;;;;;;;;;;4973586;28;20191;-72
2021/05/20 03:27:09;;;;;;;3.37;2.27;;;;;;;;;;5007056;28;20573;-72
2021/05/20 03:30:14;;;;;;;4.23;2.50;;;;;;;;;;4997804;28;20190;-72
2021/05/20 03:33:18;;;;;;;3.93;3.00;;;;;;;;;;4982264;28;20214;-72
2021/05/20 03:36:22;;;;;;;3.07;2.57;;;;;;;;;;4994375;28;20193;-72
2021/05/20 03:39:26;;;;;;;3.53;2.40;;;;;;;;;;5003548;28;20201;-72
2021/05/20 03:42:30;;;;;;;3.60;2.90;;;;;;;;;;5009835;28;20210;-73
2021/05/20 03:45:34;;;;;;;3.93;2.83;;;;;;;;;;4993816;28;20653;-72
2021/05/20 03:48:38;;;;;;;3.10;2.63;;;;;;;;;;4996873;28;20189;-72
2021/05/20 03:51:42;;;;;;;3.50;2.80;;;;;;;;;;5013135;28;20217;-72
2021/05/20 03:54:46;;;;;;;3.87;3.10;;;;;;;;;;4997049;28;20548;-72
2021/05/20 03:57:51;;;;;;;5.33;3.20;;;;;;;;;;5008517;28;20656;-72
2021/05/20 04:00:55;;;;;;;3.67;3.27;;;;;;;;;;4974379;28;20661;-72
2021/05/20 04:03:59;;;;;;;3.80;3.20;;;;;;;;;;4989295;28;20190;-72
2021/05/20 04:07:03;;;;;;;4.97;3.13;;;;;;;;;;5007654;28;20186;-73
2021/05/20 04:10:08;;;;;;;5.10;3.30;;;;;;;;;;4996110;28;20197;-72
2021/05/20 04:13:12;;;;;;;5.50;3.67;;;;;;;;;;4996435;28;20229;-72
2021/05/20 04:16:16;;;;;;;6.27;3.87;;;;;;;;;;5000224;28;20193;-72
2021/05/20 04:19:20;;;;;;;5.07;3.47;;;;;;;;;;4976745;28;20183;-72
2021/05/20 04:22:24;;;;;;;5.17;4.17;;;;;;;;;;4981775;28;20221;-73
2021/05/20 04:25:29;;;;;;;5.80;3.20;;;;;;;;;;4994097;28;20182;-73
2021/05/20 04:28:33;;;;;;;5.40;3.33;;;;;;;;;;5003740;28;20185;-73
2021/05/20 04:31:37;;;;;;;4.73;3.57;;;;;;;;;;4991622;28;20237;-74
2021/05/20 04:34:44;;;;;;;7.53;3.47;;;;;;;;;;4974068;28;20183;-74
2021/05/20 04:37:48;;;;;;;3.57;3.27;;;;;;;;;;4998927;28;20185;-74
2021/05/20 04:40:53;;;;;;;4.83;3.43;;;;;;;;;;4988390;28;20217;-74
2021/05/20 04:43:57;;;;;;;3.70;2.83;;;;;;;;;;4993846;28;20566;-74
2021/05/20 04:47:00;;;;;;;5.97;3.50;;;;;;;;;;4997857;28;20210;-74
2021/05/20 04:50:05;;;;;;;3.60;2.83;;;;;;;;;;4998491;28;20227;-74
2021/05/20 04:53:10;;;;;;;8.77;3.40;;;;;;;;;;4987097;28;20229;-74
2021/05/20 04:56:22;;;;;;;3.13;2.83;;;;;;;;;;4982673;28;20201;-74
2021/05/20 04:59:26;;;;;;;6.53;2.67;;;;;;;;;;4992359;28;20637;-71
2021/05/20 05:02:31;;;;;;;4.20;2.77;;;;;;;;;;4990170;28;20218;-71
2021/05/20 05:05:35;;;;;;;5.13;3.00;;;;;;;;;;4983589;28;20194;-71
2021/05/20 05:08:40;;;;;;;5.27;2.60;;;;;;;;;;5004268;28;20186;-71
2021/05/20 05:11:44;;;;;;;4.27;2.87;;;;;;;;;;5016638;28;20213;-71
2021/05/20 05:14:48;;;;;;;5.07;3.10;;;;;;;;;;5015926;28;20173;-71
2021/05/20 05:17:52;;;;;;;4.73;2.90;;;;;;;;;;5001125;28;20201;-71
2021/05/20 05:20:56;;;;;;;5.80;2.87;;;;;;;;;;4992581;28;20209;-73
2021/05/20 05:24:00;;;;;;;9.83;6.20;;;;;;;;;;5013906;28;20532;-73
2021/05/20 05:27:05;;;;;;;4.97;2.93;;;;;;;;;;5000101;28;20201;-73
2021/05/20 05:30:10;;;;;;;4.93;2.60;;;;;;;;;;5012197;28;20190;-73
2021/05/20 05:33:14;;;;;;;4.33;3.37;;;;;;;;;;4976739;28;20227;-73
2021/05/20 05:36:21;;;;;;;4.37;2.50;;;;;;;;;;5007712;28;20181;-73
2021/05/20 05:39:25;;;;;;;4.33;2.63;;;;;;;;;;4992292;28;20224;-73
2021/05/20 05:42:29;;;;;;;3.20;2.90;;;;;;;;;;5009542;28;20696;-74
2021/05/20 05:45:34;;;;;;;3.50;3.20;;;;;;;;;;5001592;28;20193;-74
2021/05/20 05:48:38;;;;;;;4.13;2.73;;;;;;;;;;4995416;28;20190;-74
2021/05/20 05:51:46;;;;;;;4.17;2.87;;;;;;;;;;4992326;28;20206;-73
2021/05/20 05:54:52;;;;;;;4.13;2.83;;;;;;;;;;4973161;28;20183;-73
2021/05/20 05:57:56;;;;;;;4.50;3.30;;;;;;;;;;4967118;28;20191;-73
2021/05/20 06:01:01;;;;;;;3.73;2.63;;;;;;;;;;4973176;28;20697;-73
2021/05/20 06:04:08;;;;;;;4.03;3.00;;;;;;;;;;4971820;28;20642;-74
2021/05/20 06:07:12;;;;;;;3.87;3.30;;;;;;;;;;4973006;28;20179;-73
2021/05/20 06:10:16;;;;;;;3.57;3.27;;;;;;;;;;4973172;28;20183;-73
2021/05/20 06:13:21;;;;;;;7.50;3.47;;;;;;;;;;4996968;28;20685;-74
2021/05/20 06:16:25;;;;;;;4.00;3.00;;;;;;;;;;4983598;28;20190;-73
2021/05/20 06:19:31;;;;;;;3.60;3.20;;;;;;;;;;4992994;28;20182;-73
2021/05/20 06:22:36;;;;;;;3.80;3.13;;;;;;;;;;5004468;28;20222;-73
2021/05/20 06:25:41;;;;;;;5.23;3.70;;;;;;;;;;4996521;28;20233;-73
2021/05/20 06:28:45;;;;;;;8.33;5.83;;;;;;;;;;4980898;28;20190;-73
2021/05/20 06:31:49;;;;;;;16.77;12.63;;;;;;;;;;4991953;28;20214;-72
2021/05/20 06:34:54;;;;;;;6.80;4.00;;;;;;;;;;4991972;28;20189;-73
2021/05/20 06:37:58;;;;;;;5.30;2.43;;;;;;;;;;4991155;28;20182;-73
2021/05/20 06:41:06;;;;;;;6.43;4.03;;;;;;;;;;4991560;28;20209;-73
2021/05/20 06:44:10;;;;;;;5.10;4.23;;;;;;;;;;4988875;28;20198;-73
2021/05/20 06:47:14;;;;;;;8.07;4.80;;;;;;;;;;4972342;28;20187;-73
2021/05/20 06:50:19;;;;;;;16.43;11.27;;;;;;;;;;4971425;28;20183;-73
2021/05/20 06:53:25;;;;;;;3.00;2.70;;;;;;;;;;4972022;28;20218;-73
2021/05/20 06:56:30;;;;;;;3.67;3.10;;;;;;;;;;4971236;28;20203;-73
2021/05/20 07:02:57;;;;;;;2.67;2.10;;;;;;;;;;4971141;28;20227;-74
2021/05/20 07:06:01;;;;;;;2.30;2.07;;;;;;;;;;4978210;28;20194;-73
2021/05/20 07:09:06;;;;;;;2.53;1.90;;;;;;;;;;4990420;28;20198;-73
2021/05/20 07:12:11;;;;;;;6.30;2.10;;;;;;;;;;4990304;28;20248;-73
2021/05/20 07:15:16;;;;;;;3.33;2.00;;;;;;;;;;4990851;28;20664;-73
2021/05/20 07:18:20;;;;;;;1.50;1.20;;;;;;;;;;4991272;28;20198;-73
2021/05/20 07:21:24;;;;;;;4.83;1.20;;;;;;;;;;4990948;28;20214;-73
2021/05/20 07:24:28;;;;;;;1.43;1.13;;;;;;;;;;4990187;28;20202;-73
2021/05/20 07:27:33;;;;;;;2.00;1.30;;;;;;;;;;4989649;28;20665;-73
2021/05/20 07:30:38;;;;;;;2.13;0.93;;;;;;;;;;4990110;28;20186;-73
2021/05/20 07:33:42;;;;;;;0.93;0.80;;;;;;;;;;4990781;28;20182;-73
2021/05/20 07:36:46;;;;;;;1.93;0.90;;;;;;;;;;4990065;28;20186;-73
2021/05/20 07:39:50;;;;;;;2.77;1.80;;;;;;;;;;4990369;28;20189;-73
2021/05/20 07:42:55;;;;;;;5.50;5.10;;;;;;;;;;4990705;28;20226;-73
2021/05/20 07:46:05;;;;;;;3.63;2.30;;;;;;;;;;4990655;28;20853;-73
2021/05/20 07:49:10;;;;;;;2.30;0.90;;;;;;;;;;4989767;28;20182;-74
2021/05/20 07:52:16;;;;;;;3.90;1.00;;;;;;;;;;4967090;28;20217;-73
2021/05/20 07:55:21;;;;;;;1.80;0.90;;;;;;;;;;4992637;28;20202;-73
2021/05/20 07:58:25;;;;;;;0.90;0.80;;;;;;;;;;4990658;28;20198;-73
2021/05/20 08:01:32;;;;;;;2.97;0.90;;;;;;;;;;4989408;28;20213;-73
2021/05/20 08:04:37;;;;;;;1.37;0.70;;;;;;;;;;4995376;28;20656;-72
2021/05/20 08:11:07;;;;;;;2.13;0.93;;;;;;;;;;4996966;28;20194;-72
2021/05/20 08:14:11;;;;;;;2.93;0.60;;;;;;;;;;4993265;28;20797;-73
2021/05/20 08:17:15;;;;;;;2.73;0.70;;;;;;;;;;4989840;28;20637;-73
2021/05/20 08:20:19;;;;;;;1.77;0.90;;;;;;;;;;5008023;28;20644;-75
2021/05/20 08:23:24;;;;;;;4.23;2.30;;;;;;;;;;5008533;28;20711;-75
2021/05/20 08:26:28;;;;;;;2.97;1.50;;;;;;;;;;5008657;28;20185;-75
2021/05/20 08:29:34;;;;;;;1.40;1.30;;;;;;;;;;4996843;28;20665;-74
2021/05/20 08:32:38;;;;;;;1.17;0.80;;;;;;;;;;4992040;28;20221;-74
2021/05/20 08:35:42;;;;;;;1.67;0.90;;;;;;;;;;5008559;28;20181;-75
2021/05/20 08:38:46;;;;;;;0.87;0.80;;;;;;;;;;5004832;28;20609;-74
2021/05/20 08:41:50;;;;;;;2.20;0.70;;;;;;;;;;5007774;28;20247;-75
2021/05/20 08:44:54;;;;;;;0.93;0.60;;;;;;;;;;4958545;28;20526;-74
2021/05/20 08:48:01;;;;;;;7.63;1.30;;;;;;;;;;4997208;28;20792;-75
2021/05/20 08:51:06;;;;;;;2.70;1.77;;;;;;;;;;4989579;28;20202;-75
2021/05/20 08:54:12;;;;;;;1.63;0.90;;;;;;;;;;4994799;28;20190;-74
2021/05/20 08:57:22;;;;;;;1.53;0.80;;;;;;;;;;4990757;28;20210;-74
2021/05/20 09:00:30;;;;;;;1.40;1.20;;;;;;;;;;4989976;28;20178;-74
2021/05/20 09:03:34;;;;;;;1.57;1.20;;;;;;;;;;4978027;28;20218;-74
2021/05/20 09:06:51;;;;;;;1.23;0.70;;;;;;;;;;4990039;28;20198;-74
2021/05/20 09:10:12;;;;;;;1.77;1.00;;;;;;;;;;4969747;28;20188;-74
2021/05/20 09:13:18;;;;;;;4.20;0.87;;;;;;;;;;4996463;28;20213;-74
2021/05/20 09:16:22;;;;;;;1.20;0.80;;;;;;;;;;5008804;23;20230;-72
2021/05/20 09:19:26;;;;;;;1.10;0.70;;;;;;;;;;4971238;28;20194;-71
2021/05/20 09:22:31;;;;;;;2.23;0.70;;;;;;;;;;4973621;28;20231;-73
2021/05/20 09:25:37;;;;;;;1.20;0.63;;;;;;;;;;4974228;28;20657;-72
2021/05/20 09:28:43;;;;;;;0.80;0.60;;;;;;;;;;4972542;28;20206;-72
2021/05/20 09:31:49;;;;;;;2.40;0.90;;;;;;;;;;4970001;28;20685;-72
2021/05/20 09:35:00;;;;;;;2.03;0.90;;;;;;;;;;4971799;28;20195;-72
2021/05/20 09:38:05;;;;;;;1.27;0.50;;;;;;;;;;4972689;28;20175;-72
2021/05/20 09:41:17;;;;;;;0.43;0.40;;;;;;;;;;4969926;28;20186;-74
2021/05/20 09:44:32;;;;;;;1.70;0.70;;;;;;;;;;4961651;28;20721;-73
2021/05/20 09:47:36;;;;;;;2.70;1.63;;;;;;;;;;4973503;28;20194;-73
2021/05/20 09:50:46;;;;;;;0.80;0.53;;;;;;;;;;4967184;28;20210;-74
2021/05/20 09:53:52;;;;;;;1.60;0.50;;;;;;;;;;4954237;29;20179;-72
2021/05/20 09:56:56;;;;;;;1.60;0.50;;;;;;;;;;4942077;29;20254;-72
2021/05/20 10:00:21;;;;;;;1.70;0.47;;;;;;;;;;4964285;28;20191;-72
2021/05/20 10:03:27;;;;;;;0.53;0.50;;;;;;;;;;4953842;28;20580;-72
2021/05/20 10:06:37;;;;;;;1.97;0.50;;;;;;;;;;4950662;28;20207;-72
2021/05/20 10:09:41;;;;;;;2.17;0.67;;;;;;;;;;4972458;28;20203;-73
2021/05/20 10:12:46;;;;;;;2.50;0.70;;;;;;;;;;4972268;28;20218;-72
2021/05/20 10:15:51;;;;;;;1.73;0.60;;;;;;;;;;4950508;29;20207;-72
2021/05/20 10:18:56;;;;;;;0.90;0.70;;;;;;;;;;4955031;28;20207;-73
2021/05/20 10:22:01;;;;;;;0.80;0.50;;;;;;;;;;4963311;28;20227;-73
2021/05/20 10:25:07;;;;;;;1.00;0.70;;;;;;;;;;4972369;28;20183;-73
2021/05/20 10:28:14;;;;;;;0.70;0.50;;;;;;;;;;4967070;28;20192;-72
2021/05/20 10:31:19;;;;;;;1.00;0.70;;;;;;;;;;4949847;28;20194;-73
2021/05/20 10:34:23;;;;;;;1.23;0.70;;;;;;;;;;4963150;28;20191;-73
2021/05/20 10:37:37;;;;;;;0.70;0.60;;;;;;;;;;4952102;28;20669;-73
2021/05/20 10:40:41;;;;;;;1.00;0.50;;;;;;;;;;4972477;28;20175;-73
2021/05/20 10:43:47;;;;;;;1.37;0.80;;;;;;;;;;4971783;28;20689;-73
2021/05/20 10:46:57;;;;;;;0.70;0.70;;;;;;;;;;4964405;28;20686;-72
2021/05/20 10:50:02;;;;;;;1.07;0.70;;;;;;;;;;4952403;28;20195;-73
2021/05/20 10:53:07;;;;;;;0.50;0.50;;;;;;;;;;4962067;28;20223;-72
2021/05/20 10:56:11;;;;;;;1.97;0.70;;;;;;;;;;4959275;28;20202;-72
2021/05/20 10:59:36;;;;;;;2.83;0.73;;;;;;;;;;4963809;28;20196;-76
2021/05/20 11:02:51;;;;;;;1.20;0.60;;;;;;;;;;4959330;28;20230;-76
2021/05/20 11:05:57;;;;;;;1.00;0.90;;;;;;;;;;4943974;29;20192;-75
2021/05/20 11:09:02;;;;;;;0.97;0.63;;;;;;;;;;4965704;28;20207;-76
2021/05/20 11:12:06;;;;;;;1.33;0.60;;;;;;;;;;4959091;28;20227;-75
2021/05/20 11:15:17;;;;;;;0.60;0.60;;;;;;;;;;4953310;29;20302;-76
2021/05/20 11:18:33;;;;;;;4.90;1.30;;;;;;;;;;4935137;28;20558;-75
2021/05/20 11:21:59;;;;;;;4.50;0.80;;;;;;;;;;4958331;28;20223;-76
2021/05/20 11:25:10;;;;;;;3.93;1.00;;;;;;;;;;4971844;28;20171;-76
2021/05/20 11:28:17;;;;;;;3.50;0.73;;;;;;;;;;4955061;28;20192;-75
2021/05/20 11:31:23;;;;;;;1.57;0.70;;;;;;;;;;4952663;29;20183;-75
2021/05/20 11:35:15;;;;;;;4.80;1.97;;;;;;;;;;4952849;29;20176;-76
2021/05/20 11:37:59;;;;;;;2.43;0.70;;;;;;;;;;4955110;28;20814;-75
2021/05/20 11:41:17;;;;;;;0.97;0.40;;;;;;;;;;4971690;28;20199;-75
2021/05/20 11:44:25;;;;;;;0.80;0.50;;;;;;;;;;4955631;28;20207;-75
2021/05/20 11:47:30;;;;;;;0.47;0.30;;;;;;;;;;4958608;28;20539;-74
2021/05/20 11:50:34;;;;;;;0.50;0.40;;;;;;;;;;4971019;28;20190;-75
2021/05/20 11:53:38;;;;;;;2.67;0.30;;;;;;;;;;4956436;28;20215;-75
2021/05/20 11:56:48;;;;;;;7.90;0.60;;;;;;;;;;4943034;28;20191;-75
2021/05/20 11:59:54;;;;;;;0.40;0.30;;;;;;;;;;4958403;28;20191;-72
2021/05/20 12:02:58;;;;;;;17.50;1.20;;;;;;;;;;4970641;28;20712;-72
2021/05/20 12:06:02;;;;;;;0.50;0.40;;;;;;;;;;4954365;28;20211;-72
2021/05/20 12:09:08;;;;;;;1.90;0.37;;;;;;;;;;4964905;28;20203;-73
2021/05/20 12:12:13;;;;;;;0.73;0.47;;;;;;;;;;4964352;28;20218;-71
2021/05/20 12:15:19;;;;;;;0.80;0.40;;;;;;;;;;4951495;29;20548;-72
2021/05/20 12:18:24;;;;;;;1.00;0.30;;;;;;;;;;4958454;28;20194;-73
2021/05/20 12:21:28;;;;;;;3.03;0.30;;;;;;;;;;4958918;28;20906;-72
2021/05/20 12:24:35;;;;;;;1.70;0.47;;;;;;;;;;4961924;28;20940;-72
2021/05/20 12:27:39;;;;;;;2.40;0.30;;;;;;;;;;4968389;28;20202;-72
2021/05/20 12:30:44;;;;;;;0.63;0.40;;;;;;;;;;4951530;29;20207;-72
2021/05/20 12:33:48;;;;;;;1.93;0.63;;;;;;;;;;4951639;29;20195;-72
2021/05/20 12:37:04;;;;;;;1.23;0.60;;;;;;;;;;4950362;29;20189;-72
2021/05/20 12:40:14;;;;;;;0.63;0.40;;;;;;;;;;4951392;28;20193;-73
2021/05/20 12:43:29;;;;;;;0.43;0.30;;;;;;;;;;4960332;28;20227;-72
2021/05/20 12:46:33;;;;;;;0.63;0.50;;;;;;;;;;4951992;28;20564;-72
2021/05/20 12:49:38;;;;;;;0.30;0.30;;;;;;;;;;4950956;28;20200;-71
2021/05/20 12:52:56;;;;;;;2.10;0.40;;;;;;;;;;4952597;28;20214;-71
2021/05/20 12:56:26;;;;;;;1.03;0.43;;;;;;;;;;4939655;29;20640;-72
2021/05/20 12:59:39;;;;;;;0.40;0.40;;;;;;;;;;4956224;28;20888;-72
2021/05/20 13:02:43;;;;;;;2.40;0.40;;;;;;;;;;4956864;28;20322;-72
2021/05/20 13:05:49;;;;;;;0.40;0.40;;;;;;;;;;4966833;28;20183;-72
2021/05/20 13:09:03;;;;;;;1.07;0.40;;;;;;;;;;4970767;28;20190;-71
2021/05/20 13:12:14;;;;;;;1.27;0.50;;;;;;;;;;4942981;28;20227;-72
2021/05/20 13:15:19;;;;;;;1.23;0.40;;;;;;;;;;4959234;28;20195;-72
2021/05/20 13:25:09;;;;;;;1.33;0.50;;;;;;;;;;4954217;29;20219;-72
2021/05/20 13:28:13;;;;;;;1.33;0.50;;;;;;;;;;4956102;28;20187;-71
2021/05/20 13:31:19;;;;;;;1.03;0.40;;;;;;;;;;4973626;28;20195;-72
2021/05/20 13:34:24;;;;;;;1.67;0.50;;;;;;;;;;4959409;28;20184;-72
2021/05/20 13:37:28;;;;;;;0.80;0.40;;;;;;;;;;4953952;29;20187;-71
2021/05/20 13:40:33;;;;;;;0.80;0.50;;;;;;;;;;4954348;29;20192;-71
2021/05/20 13:43:38;;;;;;;28.00;2.20;;;;;;;;;;4954196;28;20227;-71
2021/05/20 13:46:42;;;;;;;0.70;0.47;;;;;;;;;;4954304;29;20190;-71
2021/05/20 13:49:47;;;;;;;0.53;0.43;;;;;;;;;;4942046;29;20602;-71
2021/05/20 13:52:53;;;;;;;1.87;0.47;;;;;;;;;;4954066;28;20215;-71
2021/05/20 13:55:58;;;;;;;1.77;0.40;;;;;;;;;;4954119;29;20203;-71
2021/05/20 13:59:03;;;;;;;1.17;0.47;;;;;;;;;;4954092;29;20187;-71
2021/05/20 14:02:10;;;;;;;0.30;0.30;;;;;;;;;;4953526;28;20219;-71
2021/05/20 14:05:14;;;;;;;0.43;0.37;;;;;;;;;;4953864;29;20215;-71
2021/05/20 14:08:18;;;;;;;0.40;0.23;;;;;;;;;;4953114;28;20179;-71
2021/05/20 14:11:23;;;;;;;0.33;0.20;;;;;;;;;;4953800;28;20191;-71
2021/05/20 14:14:29;;;;;;;2.87;0.30;;;;;;;;;;4953334;29;20188;-71
2021/05/20 14:17:33;;;;;;;0.93;0.37;;;;;;;;;;4953582;29;20203;-71
2021/05/20 14:20:37;;;;;;;0.80;0.40;;;;;;;;;;4953774;29;20184;-71
2021/05/20 14:23:41;;;;;;;0.40;0.30;;;;;;;;;;4953386;28;20962;-71
2021/05/20 14:26:47;;;;;;;1.80;0.37;;;;;;;;;;4953112;29;20203;-72
2021/05/20 14:29:52;;;;;;;0.60;0.40;;;;;;;;;;4953543;29;20207;-71
2021/05/20 14:32:56;;;;;;;1.90;0.60;;;;;;;;;;4953481;28;20227;-71
2021/05/20 14:36:01;;;;;;;2.20;0.50;;;;;;;;;;4953290;29;20172;-71
2021/05/20 14:39:05;;;;;;;1.92;0.63;;;;;;;;;;4951959;29;20976;-70
2021/05/20 14:42:10;;;;;;;0.63;0.40;;;;;;;;;;4953262;28;20219;-71
2021/05/20 14:45:14;;;;;;;1.67;0.57;;;;;;;;;;4953093;29;20603;-71
2021/05/20 14:48:19;;;;;;;3.83;0.60;;;;;;;;;;4953995;28;20191;-70
2021/05/20 14:51:26;;;;;;;1.03;0.50;;;;;;;;;;4952904;28;20523;-70
2021/05/20 14:54:32;;;;;;;0.80;0.50;;;;;;;;;;4953194;29;20554;-70
2021/05/20 15:07:35;;;;;;;1.43;0.60;;;;;;;;;;4952672;29;20188;-71
2021/05/20 15:10:53;;;;;;;1.30;0.40;;;;;;;;;;4952631;29;20199;-70
2021/05/20 15:14:14;;;;;;;1.47;0.57;;;;;;;;;;4952470;29;20184;-70
2021/05/20 15:17:50;;;;;;;0.53;0.40;;;;;;;;;;4948700;28;20207;-71
2021/05/20 15:20:58;;;;;;;1.60;0.50;;;;;;;;;;4975119;28;20191;-70
2021/05/20 15:24:04;;;;;;;1.87;0.50;;;;;;;;;;4954394;29;20235;-72
2021/05/20 15:27:08;;;;;;;0.30;0.30;;;;;;;;;;4943483;29;20199;-71
2021/05/20 15:30:13;;;;;;;0.73;0.47;;;;;;;;;;4954109;29;20220;-71
2021/05/20 15:33:17;;;;;;;0.50;0.47;;;;;;;;;;4955627;29;20215;-71
2021/05/20 15:36:21;;;;;;;0.60;0.40;;;;;;;;;;4954959;29;20539;-71
2021/05/20 15:39:26;;;;;;;2.40;0.40;;;;;;;;;;4955821;29;20187;-71
2021/05/20 15:42:30;;;;;;;2.13;0.50;;;;;;;;;;4954924;29;20223;-72
2021/05/20 15:45:35;;;;;;;1.00;0.40;;;;;;;;;;4941644;29;20552;-72
2021/05/20 15:52:02;;;;;;;2.43;0.73;;;;;;;;;;4941916;29;20215;-71
2021/05/20 15:55:09;;;;;;;2.13;0.53;;;;;;;;;;4948164;29;20193;-71
2021/05/20 15:58:13;;;;;;;0.57;0.50;;;;;;;;;;4936185;29;20176;-72
2021/05/20 16:01:17;;;;;;;2.73;0.30;;;;;;;;;;4922434;29;20203;-71
2021/05/20 16:04:22;;;;;;;1.83;0.60;;;;;;;;;;4950831;29;20215;-73
2021/05/20 16:17:14;;;;;;;1.00;0.40;;;;;;;;;;4944409;29;20203;-71
2021/05/20 16:20:21;;;;;;;0.80;0.70;;;;;;;;;;4950233;29;20543;-73
2021/05/20 16:37:02;;;;;;;2.20;1.37;;;;;;;;;;4954545;29;20788;-71
2021/05/20 16:40:07;;;;;;;0.80;0.60;;;;;;;;;;4934532;29;20660;-71
2021/05/20 16:43:12;;;;;;;0.50;0.40;;;;;;;;;;4935987;29;20215;-71
2021/05/20 16:46:17;;;;;;;0.70;0.50;;;;;;;;;;4955302;29;20175;-74
2021/05/20 16:49:21;;;;;;;0.37;0.30;;;;;;;;;;4942342;29;20211;-73
2021/05/20 16:52:28;;;;;;;0.67;0.50;;;;;;;;;;4936066;29;20231;-71
2021/05/20 16:55:58;;;;;;;0.57;0.57;;;;;;;;;;4935016;29;20184;-74
2021/05/20 16:58:59;;;;;;;0.40;0.40;;;;;;;;;;4924188;29;20181;-73
2021/05/20 17:02:04;;;;;;;0.40;0.33;;;;;;;;;;4936910;29;20223;-73
2021/05/20 17:05:08;;;;;;;0.50;0.40;;;;;;;;;;4940252;29;20219;-73
2021/05/20 17:08:13;;;;;;;0.67;0.30;;;;;;;;;;4938021;29;20200;-73
2021/05/20 17:11:18;;;;;;;0.97;0.40;;;;;;;;;;4943373;29;20187;-73
2021/05/20 17:14:21;;;;;;;3.10;0.40;;;;;;;;;;4926330;29;20192;-73
2021/05/20 17:17:27;;;;;;;1.43;0.60;;;;;;;;;;4935918;29;20188;-73
2021/05/20 17:20:31;;;;;;;0.57;0.40;;;;;;;;;;4935081;29;20183;-73
2021/05/20 17:23:37;;;;;;;0.67;0.37;;;;;;;;;;4949823;29;20223;-73
2021/05/20 17:26:41;;;;;;;0.57;0.40;;;;;;;;;;4953622;29;20188;-73
2021/05/20 17:29:46;;;;;;;0.40;0.40;;;;;;;;;;4954297;29;20207;-73
2021/05/20 17:32:50;;;;;;;0.60;0.40;;;;;;;;;;4946983;29;20266;-73
2021/05/20 17:35:56;;;;;;;0.57;0.40;;;;;;;;;;4943249;29;20211;-72
2021/05/20 17:39:02;;;;;;;0.40;0.40;;;;;;;;;;4952779;29;20196;-73
2021/05/20 17:42:06;;;;;;;0.40;0.40;;;;;;;;;;4953315;29;20219;-73
2021/05/20 17:45:11;;;;;;;1.67;0.50;;;;;;;;;;4948199;29;20224;-72
2021/05/20 17:48:23;;;;;;;0.47;0.40;;;;;;;;;;4941283;29;20195;-73
2021/05/20 17:51:27;;;;;;;0.50;0.40;;;;;;;;;;4947171;29;20203;-72
2021/05/20 17:54:32;;;;;;;1.27;0.40;;;;;;;;;;4954069;29;20184;-72
2021/05/20 17:57:36;;;;;;;0.60;0.50;;;;;;;;;;4945797;29;20200;-72
2021/05/20 18:00:42;;;;;;;0.60;0.50;;;;;;;;;;4931046;29;20196;-72
2021/05/20 18:03:47;;;;;;;2.73;0.50;;;;;;;;;;4951453;29;20195;-73
2021/05/20 18:06:51;;;;;;;2.93;0.60;;;;;;;;;;4948503;29;20193;-72
2021/05/20 18:09:56;;;;;;;0.40;0.30;;;;;;;;;;4912262;29;20184;-73
2021/05/20 18:13:06;;;;;;;0.97;0.50;;;;;;;;;;4934423;29;20228;-73
2021/05/20 18:22:56;;;;;;;1.30;0.60;;;;;;;;;;4935423;29;20695;-72
2021/05/20 18:26:00;;;;;;;1.37;0.67;;;;;;;;;;4924290;29;20212;-72
2021/05/20 18:29:05;;;;;;;1.43;0.60;;;;;;;;;;4941800;29;20528;-73
2021/05/20 18:32:09;;;;;;;4.07;0.67;;;;;;;;;;4943926;29;20223;-73
2021/05/20 18:35:13;;;;;;;0.57;0.50;;;;;;;;;;4953487;29;20176;-73
2021/05/20 18:38:20;;;;;;;0.73;0.57;;;;;;;;;;4934001;29;20188;-73
2021/05/20 18:41:25;;;;;;;1.87;0.60;;;;;;;;;;4935148;29;20187;-72
2021/05/20 18:44:42;;;;;;;3.83;0.77;;;;;;;;;;4933885;29;20207;-72
2021/05/20 18:47:47;;;;;;;0.60;0.43;;;;;;;;;;4949284;29;20675;-72
2021/05/20 18:50:51;;;;;;;1.33;0.40;;;;;;;;;;4942886;29;20192;-72
2021/05/20 18:53:56;;;;;;;1.50;0.60;;;;;;;;;;4949831;29;20200;-73
2021/05/20 18:57:00;;;;;;;1.77;0.60;;;;;;;;;;4943673;29;20188;-73
2021/05/20 19:00:25;;;;;;;2.10;0.57;;;;;;;;;;4943630;29;20538;-72
2021/05/20 19:03:30;;;;;;;0.60;0.50;;;;;;;;;;4952680;29;20996;-72
2021/05/20 19:06:34;;;;;;;2.23;0.63;;;;;;;;;;4940840;29;20223;-72
2021/05/20 19:09:42;;;;;;;0.90;0.60;;;;;;;;;;4943316;29;20208;-72
2021/05/20 19:12:47;;;;;;;0.60;0.50;;;;;;;;;;4948424;29;20235;-72
2021/05/20 19:15:53;;;;;;;2.70;0.90;;;;;;;;;;4941413;29;20192;-72
2021/05/20 19:22:24;;;;;;;1.33;0.60;;;;;;;;;;4939048;29;20239;-72
2021/05/20 19:25:28;;;;;;;0.60;0.50;;;;;;;;;;4935897;29;20211;-72
2021/05/20 19:28:35;;;;;;;1.03;0.73;;;;;;;;;;4938652;29;20191;-72
2021/05/20 19:31:47;;;;;;;0.90;0.70;;;;;;;;;;4952497;29;20219;-72
2021/05/20 19:34:53;;;;;;;1.17;0.60;;;;;;;;;;4932086;29;20196;-72
2021/05/20 19:37:57;;;;;;;0.40;0.40;;;;;;;;;;4942523;29;20211;-72